sensor_id;sensor_type;location;lat;lon;timestamp;P1;durP1;ratioP1;P2;durP2;ratioP2
11616;SDS011;5864;52.998;9.068;2022-07-06T00:00:00;2.57;;;1.30;;
11616;SDS011;5864;52.998;9.068;2022-07-06T00:02:28;3.93;;;2.00;;
11616;SDS011;5864;52.998;9.068;2022-07-06T00:04:56;2.73;;;1.43;;
11616;SDS011;5864;52.998;9.068;2022-07-06T00:07:24;2.60;;;1.57;;
11616;SDS011;5864;52.998;9.068;2022-07-06T00:09:53;3.73;;;1.43;;
11616;SDS011;5864;52.998;9.068;2022-07-06T00:12:21;6.00;;;1.53;;
11616;SDS011;5864;52.998;9.068;2022-07-06T00:14:48;2.50;;;1.50;;
11616;SDS011;5864;52.998;9.068;2022-07-06T00:17:16;1.50;;;1.40;;
11616;SDS011;5864;52.998;9.068;2022-07-06T00:19:44;3.60;;;1.50;;
11616;SDS011;5864;52.998;9.068;2022-07-06T00:22:11;3.10;;;1.57;;
11616;SDS011;5864;52.998;9.068;2022-07-06T00:24:39;2.63;;;1.57;;
11616;SDS011;5864;52.998;9.068;2022-07-06T00:27:08;5.23;;;2.03;;
11616;SDS011;5864;52.998;9.068;2022-07-06T00:29:36;2.00;;;1.43;;
11616;SDS011;5864;52.998;9.068;2022-07-06T00:32:04;3.13;;;1.50;;
11616;SDS011;5864;52.998;9.068;2022-07-06T00:34:31;3.97;;;1.90;;
11616;SDS011;5864;52.998;9.068;2022-07-06T00:37:00;2.50;;;1.50;;
11616;SDS011;5864;52.998;9.068;2022-07-06T00:39:28;1.70;;;1.40;;
11616;SDS011;5864;52.998;9.068;2022-07-06T00:41:55;5.40;;;1.70;;
11616;SDS011;5864;52.998;9.068;2022-07-06T00:44:25;4.10;;;1.50;;
11616;SDS011;5864;52.998;9.068;2022-07-06T00:46:52;1.73;;;1.47;;
11616;SDS011;5864;52.998;9.068;2022-07-06T00:49:20;3.07;;;1.60;;
11616;SDS011;5864;52.998;9.068;2022-07-06T00:52:05;2.93;;;1.60;;
11616;SDS011;5864;52.998;9.068;2022-07-06T00:54:33;4.70;;;1.67;;
11616;SDS011;5864;52.998;9.068;2022-07-06T00:57:02;4.07;;;1.63;;
11616;SDS011;5864;52.998;9.068;2022-07-06T00:59:31;3.67;;;1.60;;
11616;SDS011;5864;52.998;9.068;2022-07-06T01:01:59;5.33;;;1.77;;
11616;SDS011;5864;52.998;9.068;2022-07-06T01:04:26;3.73;;;1.80;;
11616;SDS011;5864;52.998;9.068;2022-07-06T01:06:54;2.53;;;1.53;;
11616;SDS011;5864;52.998;9.068;2022-07-06T01:09:23;3.87;;;1.60;;
11616;SDS011;5864;52.998;9.068;2022-07-06T01:11:51;2.27;;;1.47;;
11616;SDS011;5864;52.998;9.068;2022-07-06T01:14:19;3.23;;;1.50;;
11616;SDS011;5864;52.998;9.068;2022-07-06T01:16:49;5.30;;;1.70;;
11616;SDS011;5864;52.998;9.068;2022-07-06T01:19:17;4.13;;;1.87;;
11616;SDS011;5864;52.998;9.068;2022-07-06T01:21:46;4.23;;;1.67;;
11616;SDS011;5864;52.998;9.068;2022-07-06T01:24:13;3.10;;;1.50;;
11616;SDS011;5864;52.998;9.068;2022-07-06T01:26:41;3.33;;;1.73;;
11616;SDS011;5864;52.998;9.068;2022-07-06T01:29:08;3.17;;;1.50;;
11616;SDS011;5864;52.998;9.068;2022-07-06T01:31:44;3.07;;;1.57;;
11616;SDS011;5864;52.998;9.068;2022-07-06T01:34:12;3.50;;;1.87;;
11616;SDS011;5864;52.998;9.068;2022-07-06T01:36:40;4.50;;;1.50;;
11616;SDS011;5864;52.998;9.068;2022-07-06T01:39:10;3.07;;;1.40;;
11616;SDS011;5864;52.998;9.068;2022-07-06T01:41:38;5.50;;;1.77;;
11616;SDS011;5864;52.998;9.068;2022-07-06T01:44:05;2.97;;;1.77;;
11616;SDS011;5864;52.998;9.068;2022-07-06T01:46:33;3.07;;;1.93;;
11616;SDS011;5864;52.998;9.068;2022-07-06T01:49:01;3.00;;;1.80;;
11616;SDS011;5864;52.998;9.068;2022-07-06T01:51:29;2.40;;;1.63;;
11616;SDS011;5864;52.998;9.068;2022-07-06T01:53:56;5.23;;;1.60;;
11616;SDS011;5864;52.998;9.068;2022-07-06T01:56:25;3.60;;;1.70;;
11616;SDS011;5864;52.998;9.068;2022-07-06T01:58:53;2.40;;;1.93;;
11616;SDS011;5864;52.998;9.068;2022-07-06T02:01:21;3.63;;;1.77;;
11616;SDS011;5864;52.998;9.068;2022-07-06T02:03:48;2.70;;;1.47;;
11616;SDS011;5864;52.998;9.068;2022-07-06T02:06:16;4.03;;;1.70;;
11616;SDS011;5864;52.998;9.068;2022-07-06T02:08:44;5.97;;;1.77;;
11616;SDS011;5864;52.998;9.068;2022-07-06T02:11:11;4.50;;;1.73;;
11616;SDS011;5864;52.998;9.068;2022-07-06T02:13:40;2.17;;;1.47;;
11616;SDS011;5864;52.998;9.068;2022-07-06T02:16:08;4.17;;;1.63;;
11616;SDS011;5864;52.998;9.068;2022-07-06T02:18:36;4.07;;;2.10;;
11616;SDS011;5864;52.998;9.068;2022-07-06T02:21:04;3.53;;;2.40;;
11616;SDS011;5864;52.998;9.068;2022-07-06T02:23:31;2.97;;;1.80;;
11616;SDS011;5864;52.998;9.068;2022-07-06T02:25:59;4.07;;;1.60;;
11616;SDS011;5864;52.998;9.068;2022-07-06T02:28:27;4.13;;;1.67;;
11616;SDS011;5864;52.998;9.068;2022-07-06T02:30:56;3.67;;;1.87;;
11616;SDS011;5864;52.998;9.068;2022-07-06T02:33:24;2.87;;;1.40;;
11616;SDS011;5864;52.998;9.068;2022-07-06T02:35:51;2.97;;;1.77;;
11616;SDS011;5864;52.998;9.068;2022-07-06T02:38:19;2.53;;;1.37;;
11616;SDS011;5864;52.998;9.068;2022-07-06T02:40:47;6.20;;;2.00;;
11616;SDS011;5864;52.998;9.068;2022-07-06T02:43:14;2.93;;;1.53;;
11616;SDS011;5864;52.998;9.068;2022-07-06T02:45:42;5.63;;;2.17;;
11616;SDS011;5864;52.998;9.068;2022-07-06T02:48:11;5.37;;;1.73;;
11616;SDS011;5864;52.998;9.068;2022-07-06T02:50:39;4.57;;;1.70;;
11616;SDS011;5864;52.998;9.068;2022-07-06T02:53:06;3.50;;;1.53;;
11616;SDS011;5864;52.998;9.068;2022-07-06T02:55:34;3.13;;;1.70;;
11616;SDS011;5864;52.998;9.068;2022-07-06T02:58:02;2.67;;;1.73;;
11616;SDS011;5864;52.998;9.068;2022-07-06T03:00:29;2.87;;;1.53;;
11616;SDS011;5864;52.998;9.068;2022-07-06T03:02:57;3.80;;;1.97;;
11616;SDS011;5864;52.998;9.068;2022-07-06T03:05:26;3.03;;;1.40;;
11616;SDS011;5864;52.998;9.068;2022-07-06T03:07:54;3.83;;;1.97;;
11616;SDS011;5864;52.998;9.068;2022-07-06T03:10:22;4.40;;;1.63;;
11616;SDS011;5864;52.998;9.068;2022-07-06T03:12:49;4.23;;;1.70;;
11616;SDS011;5864;52.998;9.068;2022-07-06T03:15:17;3.07;;;1.90;;
11616;SDS011;5864;52.998;9.068;2022-07-06T03:17:44;5.17;;;1.93;;
11616;SDS011;5864;52.998;9.068;2022-07-06T03:20:12;3.60;;;1.60;;
11616;SDS011;5864;52.998;9.068;2022-07-06T03:22:41;3.37;;;1.70;;
11616;SDS011;5864;52.998;9.068;2022-07-06T03:25:09;4.07;;;1.50;;
11616;SDS011;5864;52.998;9.068;2022-07-06T03:27:37;4.43;;;1.70;;
11616;SDS011;5864;52.998;9.068;2022-07-06T03:30:05;3.77;;;1.60;;
11616;SDS011;5864;52.998;9.068;2022-07-06T03:32:33;2.77;;;1.63;;
11616;SDS011;5864;52.998;9.068;2022-07-06T03:35:01;2.70;;;1.70;;
11616;SDS011;5864;52.998;9.068;2022-07-06T03:37:28;3.97;;;1.80;;
11616;SDS011;5864;52.998;9.068;2022-07-06T03:39:58;4.10;;;1.80;;
11616;SDS011;5864;52.998;9.068;2022-07-06T03:42:25;3.17;;;1.77;;
11616;SDS011;5864;52.998;9.068;2022-07-06T03:44:53;4.37;;;2.07;;
11616;SDS011;5864;52.998;9.068;2022-07-06T03:47:21;4.10;;;1.90;;
11616;SDS011;5864;52.998;9.068;2022-07-06T03:49:48;2.80;;;1.70;;
11616;SDS011;5864;52.998;9.068;2022-07-06T03:52:16;3.70;;;1.80;;
11616;SDS011;5864;52.998;9.068;2022-07-06T03:54:44;4.60;;;1.70;;
11616;SDS011;5864;52.998;9.068;2022-07-06T03:57:13;5.20;;;2.20;;
11616;SDS011;5864;52.998;9.068;2022-07-06T03:59:40;3.87;;;1.57;;
11616;SDS011;5864;52.998;9.068;2022-07-06T04:02:08;2.90;;;1.80;;
11616;SDS011;5864;52.998;9.068;2022-07-06T04:04:36;3.43;;;1.77;;
11616;SDS011;5864;52.998;9.068;2022-07-06T04:07:03;3.43;;;1.83;;
11616;SDS011;5864;52.998;9.068;2022-07-06T04:09:31;3.20;;;1.60;;
11616;SDS011;5864;52.998;9.068;2022-07-06T04:11:59;4.30;;;1.93;;
11616;SDS011;5864;52.998;9.068;2022-07-06T04:14:28;6.53;;;2.00;;
11616;SDS011;5864;52.998;9.068;2022-07-06T04:16:55;4.67;;;1.70;;
11616;SDS011;5864;52.998;9.068;2022-07-06T04:19:23;2.73;;;1.73;;
11616;SDS011;5864;52.998;9.068;2022-07-06T04:21:51;5.47;;;1.90;;
11616;SDS011;5864;52.998;9.068;2022-07-06T04:24:19;3.73;;;1.70;;
11616;SDS011;5864;52.998;9.068;2022-07-06T04:26:46;5.00;;;1.70;;
11616;SDS011;5864;52.998;9.068;2022-07-06T04:29:14;4.47;;;1.73;;
11616;SDS011;5864;52.998;9.068;2022-07-06T04:31:43;5.67;;;1.70;;
11616;SDS011;5864;52.998;9.068;2022-07-06T04:34:10;5.83;;;1.90;;
11616;SDS011;5864;52.998;9.068;2022-07-06T04:36:38;5.40;;;1.90;;
11616;SDS011;5864;52.998;9.068;2022-07-06T04:39:06;3.53;;;1.50;;
11616;SDS011;5864;52.998;9.068;2022-07-06T04:41:33;4.73;;;1.80;;
11616;SDS011;5864;52.998;9.068;2022-07-06T04:44:01;5.27;;;2.00;;
11616;SDS011;5864;52.998;9.068;2022-07-06T04:46:29;6.63;;;1.87;;
11616;SDS011;5864;52.998;9.068;2022-07-06T04:48:58;3.80;;;1.33;;
11616;SDS011;5864;52.998;9.068;2022-07-06T04:51:25;4.33;;;1.90;;
11616;SDS011;5864;52.998;9.068;2022-07-06T04:53:53;5.67;;;1.70;;
11616;SDS011;5864;52.998;9.068;2022-07-06T04:56:21;7.40;;;2.00;;
11616;SDS011;5864;52.998;9.068;2022-07-06T04:58:49;5.90;;;2.40;;
11616;SDS011;5864;52.998;9.068;2022-07-06T05:01:16;4.83;;;1.67;;
11616;SDS011;5864;52.998;9.068;2022-07-06T05:03:44;4.67;;;2.00;;
11616;SDS011;5864;52.998;9.068;2022-07-06T05:06:14;4.20;;;1.57;;
11616;SDS011;5864;52.998;9.068;2022-07-06T05:08:43;4.70;;;1.73;;
11616;SDS011;5864;52.998;9.068;2022-07-06T05:11:11;5.47;;;2.00;;
11616;SDS011;5864;52.998;9.068;2022-07-06T05:13:39;7.13;;;1.97;;
11616;SDS011;5864;52.998;9.068;2022-07-06T05:16:07;5.37;;;1.93;;
11616;SDS011;5864;52.998;9.068;2022-07-06T05:18:34;2.03;;;1.40;;
11616;SDS011;5864;52.998;9.068;2022-07-06T05:21:02;3.20;;;1.73;;
11616;SDS011;5864;52.998;9.068;2022-07-06T05:23:31;5.93;;;1.90;;
11616;SDS011;5864;52.998;9.068;2022-07-06T05:25:59;4.97;;;1.90;;
11616;SDS011;5864;52.998;9.068;2022-07-06T05:28:26;4.50;;;1.90;;
11616;SDS011;5864;52.998;9.068;2022-07-06T05:30:54;7.03;;;2.00;;
11616;SDS011;5864;52.998;9.068;2022-07-06T05:33:22;4.17;;;1.70;;
11616;SDS011;5864;52.998;9.068;2022-07-06T05:35:49;6.07;;;2.13;;
11616;SDS011;5864;52.998;9.068;2022-07-06T05:38:17;2.30;;;1.37;;
11616;SDS011;5864;52.998;9.068;2022-07-06T05:40:46;4.93;;;1.80;;
11616;SDS011;5864;52.998;9.068;2022-07-06T05:43:14;5.07;;;1.60;;
11616;SDS011;5864;52.998;9.068;2022-07-06T05:45:42;3.97;;;1.23;;
11616;SDS011;5864;52.998;9.068;2022-07-06T05:48:09;2.87;;;1.40;;
11616;SDS011;5864;52.998;9.068;2022-07-06T05:50:55;5.97;;;1.80;;
11616;SDS011;5864;52.998;9.068;2022-07-06T05:53:22;4.00;;;1.63;;
11616;SDS011;5864;52.998;9.068;2022-07-06T05:55:51;3.97;;;1.60;;
11616;SDS011;5864;52.998;9.068;2022-07-06T05:58:20;1.70;;;1.20;;
11616;SDS011;5864;52.998;9.068;2022-07-06T06:00:49;7.00;;;1.30;;
11616;SDS011;5864;52.998;9.068;2022-07-06T06:03:17;4.77;;;1.93;;
11616;SDS011;5864;52.998;9.068;2022-07-06T06:05:44;5.10;;;1.70;;
11616;SDS011;5864;52.998;9.068;2022-07-06T06:08:12;3.57;;;1.37;;
11616;SDS011;5864;52.998;9.068;2022-07-06T06:10:40;2.87;;;1.30;;
11616;SDS011;5864;52.998;9.068;2022-07-06T06:13:09;3.53;;;1.40;;
11616;SDS011;5864;52.998;9.068;2022-07-06T06:15:36;5.00;;;1.93;;
11616;SDS011;5864;52.998;9.068;2022-07-06T06:18:04;4.60;;;1.40;;
11616;SDS011;5864;52.998;9.068;2022-07-06T06:20:32;3.13;;;1.30;;
11616;SDS011;5864;52.998;9.068;2022-07-06T06:22:59;3.50;;;1.53;;
11616;SDS011;5864;52.998;9.068;2022-07-06T06:25:30;2.87;;;1.23;;
11616;SDS011;5864;52.998;9.068;2022-07-06T06:27:58;4.43;;;1.40;;
11616;SDS011;5864;52.998;9.068;2022-07-06T06:30:28;3.77;;;1.57;;
11616;SDS011;5864;52.998;9.068;2022-07-06T06:33:08;3.50;;;1.30;;
11616;SDS011;5864;52.998;9.068;2022-07-06T06:35:36;4.07;;;1.20;;
11616;SDS011;5864;52.998;9.068;2022-07-06T06:38:04;4.43;;;1.37;;
11616;SDS011;5864;52.998;9.068;2022-07-06T06:40:32;3.33;;;1.40;;
11616;SDS011;5864;52.998;9.068;2022-07-06T06:42:59;4.47;;;1.53;;
11616;SDS011;5864;52.998;9.068;2022-07-06T06:45:28;4.10;;;1.37;;
11616;SDS011;5864;52.998;9.068;2022-07-06T06:47:56;2.73;;;1.30;;
11616;SDS011;5864;52.998;9.068;2022-07-06T06:50:25;1.90;;;1.60;;
11616;SDS011;5864;52.998;9.068;2022-07-06T06:52:52;5.03;;;1.70;;
11616;SDS011;5864;52.998;9.068;2022-07-06T06:55:20;2.93;;;1.30;;
11616;SDS011;5864;52.998;9.068;2022-07-06T06:57:48;3.33;;;1.30;;
11616;SDS011;5864;52.998;9.068;2022-07-06T07:00:15;3.37;;;1.27;;
11616;SDS011;5864;52.998;9.068;2022-07-06T07:02:45;3.23;;;1.20;;
11616;SDS011;5864;52.998;9.068;2022-07-06T07:05:13;3.67;;;1.40;;
11616;SDS011;5864;52.998;9.068;2022-07-06T07:07:41;3.93;;;1.30;;
11616;SDS011;5864;52.998;9.068;2022-07-06T07:10:09;5.53;;;1.50;;
11616;SDS011;5864;52.998;9.068;2022-07-06T07:12:41;3.20;;;1.30;;
11616;SDS011;5864;52.998;9.068;2022-07-06T07:15:09;4.07;;;1.20;;
11616;SDS011;5864;52.998;9.068;2022-07-06T07:17:37;2.70;;;1.20;;
11616;SDS011;5864;52.998;9.068;2022-07-06T07:20:07;2.97;;;1.30;;
11616;SDS011;5864;52.998;9.068;2022-07-06T07:22:35;2.50;;;1.30;;
11616;SDS011;5864;52.998;9.068;2022-07-06T07:25:03;6.60;;;1.50;;
11616;SDS011;5864;52.998;9.068;2022-07-06T07:27:30;3.63;;;1.30;;
11616;SDS011;5864;52.998;9.068;2022-07-06T07:29:58;4.33;;;1.30;;
11616;SDS011;5864;52.998;9.068;2022-07-06T07:32:26;2.40;;;1.37;;
11616;SDS011;5864;52.998;9.068;2022-07-06T07:34:53;2.47;;;1.37;;
11616;SDS011;5864;52.998;9.068;2022-07-06T07:37:22;5.57;;;1.43;;
11616;SDS011;5864;52.998;9.068;2022-07-06T07:39:50;1.77;;;1.10;;
11616;SDS011;5864;52.998;9.068;2022-07-06T07:42:18;5.27;;;1.63;;
11616;SDS011;5864;52.998;9.068;2022-07-06T07:44:45;4.37;;;1.57;;
11616;SDS011;5864;52.998;9.068;2022-07-06T07:47:13;3.53;;;1.20;;
11616;SDS011;5864;52.998;9.068;2022-07-06T07:49:41;4.37;;;1.47;;
11616;SDS011;5864;52.998;9.068;2022-07-06T07:52:09;4.23;;;1.03;;
11616;SDS011;5864;52.998;9.068;2022-07-06T07:54:38;3.43;;;1.10;;
11616;SDS011;5864;52.998;9.068;2022-07-06T07:57:05;2.53;;;1.30;;
11616;SDS011;5864;52.998;9.068;2022-07-06T07:59:33;3.97;;;1.10;;
11616;SDS011;5864;52.998;9.068;2022-07-06T08:02:01;3.77;;;1.20;;
11616;SDS011;5864;52.998;9.068;2022-07-06T08:04:28;2.83;;;1.30;;
11616;SDS011;5864;52.998;9.068;2022-07-06T08:06:56;1.60;;;0.90;;
11616;SDS011;5864;52.998;9.068;2022-07-06T08:09:24;1.57;;;1.10;;
11616;SDS011;5864;52.998;9.068;2022-07-06T08:11:53;4.30;;;0.90;;
11616;SDS011;5864;52.998;9.068;2022-07-06T08:14:21;2.70;;;1.00;;
11616;SDS011;5864;52.998;9.068;2022-07-06T08:16:48;1.73;;;1.10;;
11616;SDS011;5864;52.998;9.068;2022-07-06T08:19:16;2.17;;;1.10;;
11616;SDS011;5864;52.998;9.068;2022-07-06T08:21:44;2.57;;;1.43;;
11616;SDS011;5864;52.998;9.068;2022-07-06T08:24:12;4.60;;;1.70;;
11616;SDS011;5864;52.998;9.068;2022-07-06T08:26:40;2.53;;;1.33;;
11616;SDS011;5864;52.998;9.068;2022-07-06T08:29:09;3.40;;;1.13;;
11616;SDS011;5864;52.998;9.068;2022-07-06T08:31:37;2.70;;;1.20;;
11616;SDS011;5864;52.998;9.068;2022-07-06T08:34:05;2.20;;;1.20;;
11616;SDS011;5864;52.998;9.068;2022-07-06T08:36:32;3.57;;;1.13;;
11616;SDS011;5864;52.998;9.068;2022-07-06T08:39:00;4.10;;;1.30;;
11616;SDS011;5864;52.998;9.068;2022-07-06T08:41:29;4.77;;;1.10;;
11616;SDS011;5864;52.998;9.068;2022-07-06T08:43:57;3.20;;;1.40;;
11616;SDS011;5864;52.998;9.068;2022-07-06T08:46:26;2.03;;;0.90;;
11616;SDS011;5864;52.998;9.068;2022-07-06T08:48:54;3.50;;;1.10;;
11616;SDS011;5864;52.998;9.068;2022-07-06T08:51:23;2.07;;;0.97;;
11616;SDS011;5864;52.998;9.068;2022-07-06T08:53:54;2.03;;;0.80;;
11616;SDS011;5864;52.998;9.068;2022-07-06T08:56:23;3.73;;;1.10;;
11616;SDS011;5864;52.998;9.068;2022-07-06T08:58:51;1.63;;;1.00;;
11616;SDS011;5864;52.998;9.068;2022-07-06T09:01:19;2.60;;;1.20;;
11616;SDS011;5864;52.998;9.068;2022-07-06T09:03:48;3.00;;;1.00;;
11616;SDS011;5864;52.998;9.068;2022-07-06T09:06:22;2.50;;;1.00;;
11616;SDS011;5864;52.998;9.068;2022-07-06T09:08:52;4.83;;;1.23;;
11616;SDS011;5864;52.998;9.068;2022-07-06T09:11:20;2.00;;;1.07;;
11616;SDS011;5864;52.998;9.068;2022-07-06T09:13:49;2.33;;;1.10;;
11616;SDS011;5864;52.998;9.068;2022-07-06T09:16:17;6.50;;;1.10;;
11616;SDS011;5864;52.998;9.068;2022-07-06T09:18:45;1.60;;;1.03;;
11616;SDS011;5864;52.998;9.068;2022-07-06T09:21:17;2.60;;;1.07;;
11616;SDS011;5864;52.998;9.068;2022-07-06T09:23:52;2.87;;;1.10;;
11616;SDS011;5864;52.998;9.068;2022-07-06T09:26:20;1.97;;;0.90;;
11616;SDS011;5864;52.998;9.068;2022-07-06T09:28:48;3.83;;;0.87;;
11616;SDS011;5864;52.998;9.068;2022-07-06T09:31:16;2.47;;;1.00;;
11616;SDS011;5864;52.998;9.068;2022-07-06T09:33:53;2.70;;;1.00;;
11616;SDS011;5864;52.998;9.068;2022-07-06T09:36:39;2.53;;;0.90;;
11616;SDS011;5864;52.998;9.068;2022-07-06T09:41:50;2.13;;;1.10;;
11616;SDS011;5864;52.998;9.068;2022-07-06T09:44:18;2.50;;;1.07;;
11616;SDS011;5864;52.998;9.068;2022-07-06T09:46:46;2.47;;;1.10;;
11616;SDS011;5864;52.998;9.068;2022-07-06T09:49:16;1.20;;;0.83;;
11616;SDS011;5864;52.998;9.068;2022-07-06T09:51:45;3.87;;;1.13;;
11616;SDS011;5864;52.998;9.068;2022-07-06T09:54:13;3.23;;;1.27;;
11616;SDS011;5864;52.998;9.068;2022-07-06T09:56:42;3.23;;;1.00;;
11616;SDS011;5864;52.998;9.068;2022-07-06T09:59:17;1.77;;;0.90;;
11616;SDS011;5864;52.998;9.068;2022-07-06T10:01:47;5.20;;;1.47;;
11616;SDS011;5864;52.998;9.068;2022-07-06T10:04:15;9.17;;;1.37;;
11616;SDS011;5864;52.998;9.068;2022-07-06T10:06:45;4.30;;;1.20;;
11616;SDS011;5864;52.998;9.068;2022-07-06T10:09:13;2.00;;;1.20;;
11616;SDS011;5864;52.998;9.068;2022-07-06T10:11:42;5.20;;;1.23;;
11616;SDS011;5864;52.998;9.068;2022-07-06T10:14:11;1.53;;;1.10;;
11616;SDS011;5864;52.998;9.068;2022-07-06T10:16:39;3.03;;;1.10;;
11616;SDS011;5864;52.998;9.068;2022-07-06T10:19:07;3.23;;;1.40;;
11616;SDS011;5864;52.998;9.068;2022-07-06T10:21:36;4.47;;;1.20;;
11616;SDS011;5864;52.998;9.068;2022-07-06T10:24:07;3.03;;;1.00;;
11616;SDS011;5864;52.998;9.068;2022-07-06T10:26:35;4.30;;;1.20;;
11616;SDS011;5864;52.998;9.068;2022-07-06T10:29:03;2.73;;;1.10;;
11616;SDS011;5864;52.998;9.068;2022-07-06T10:31:32;3.03;;;1.20;;
11616;SDS011;5864;52.998;9.068;2022-07-06T10:34:03;3.67;;;1.50;;
11616;SDS011;5864;52.998;9.068;2022-07-06T10:36:36;3.00;;;1.00;;
11616;SDS011;5864;52.998;9.068;2022-07-06T10:39:03;1.53;;;1.10;;
11616;SDS011;5864;52.998;9.068;2022-07-06T10:41:53;1.00;;;0.80;;
11616;SDS011;5864;52.998;9.068;2022-07-06T10:44:22;1.53;;;0.90;;
11616;SDS011;5864;52.998;9.068;2022-07-06T10:46:51;1.40;;;0.77;;
11616;SDS011;5864;52.998;9.068;2022-07-06T10:49:20;2.10;;;0.90;;
11616;SDS011;5864;52.998;9.068;2022-07-06T10:51:48;1.97;;;1.10;;
11616;SDS011;5864;52.998;9.068;2022-07-06T10:54:16;6.10;;;1.00;;
11616;SDS011;5864;52.998;9.068;2022-07-06T10:56:45;1.40;;;0.80;;
11616;SDS011;5864;52.998;9.068;2022-07-06T10:59:14;1.57;;;0.73;;
11616;SDS011;5864;52.998;9.068;2022-07-06T11:02:10;2.67;;;0.70;;
11616;SDS011;5864;52.998;9.068;2022-07-06T11:04:38;1.77;;;0.80;;
11616;SDS011;5864;52.998;9.068;2022-07-06T11:07:09;4.07;;;0.80;;
11616;SDS011;5864;52.998;9.068;2022-07-06T11:09:37;1.53;;;0.93;;
11616;SDS011;5864;52.998;9.068;2022-07-06T11:14:54;1.67;;;0.77;;
11616;SDS011;5864;52.998;9.068;2022-07-06T11:17:27;1.77;;;0.80;;
11616;SDS011;5864;52.998;9.068;2022-07-06T11:19:55;4.00;;;0.97;;
11616;SDS011;5864;52.998;9.068;2022-07-06T11:22:23;2.43;;;0.90;;
11616;SDS011;5864;52.998;9.068;2022-07-06T11:24:51;2.57;;;0.83;;
11616;SDS011;5864;52.998;9.068;2022-07-06T11:27:19;1.63;;;0.90;;
11616;SDS011;5864;52.998;9.068;2022-07-06T11:29:49;3.63;;;1.10;;
11616;SDS011;5864;52.998;9.068;2022-07-06T11:32:22;3.67;;;1.00;;
11616;SDS011;5864;52.998;9.068;2022-07-06T11:34:50;2.40;;;0.90;;
11616;SDS011;5864;52.998;9.068;2022-07-06T11:37:18;2.43;;;1.00;;
11616;SDS011;5864;52.998;9.068;2022-07-06T11:39:46;2.37;;;0.97;;
11616;SDS011;5864;52.998;9.068;2022-07-06T11:42:15;2.13;;;0.70;;
11616;SDS011;5864;52.998;9.068;2022-07-06T11:44:43;2.57;;;0.90;;
11616;SDS011;5864;52.998;9.068;2022-07-06T11:47:11;1.10;;;0.83;;
11616;SDS011;5864;52.998;9.068;2022-07-06T11:49:41;2.07;;;0.90;;
11616;SDS011;5864;52.998;9.068;2022-07-06T11:52:11;2.17;;;0.80;;
11616;SDS011;5864;52.998;9.068;2022-07-06T11:54:45;2.03;;;0.97;;
11616;SDS011;5864;52.998;9.068;2022-07-06T11:57:13;2.53;;;1.10;;
11616;SDS011;5864;52.998;9.068;2022-07-06T11:59:43;2.10;;;0.80;;
11616;SDS011;5864;52.998;9.068;2022-07-06T12:02:14;2.20;;;1.10;;
11616;SDS011;5864;52.998;9.068;2022-07-06T12:04:43;2.97;;;1.37;;
11616;SDS011;5864;52.998;9.068;2022-07-06T12:07:12;2.40;;;1.00;;
11616;SDS011;5864;52.998;9.068;2022-07-06T12:09:41;4.07;;;1.20;;
11616;SDS011;5864;52.998;9.068;2022-07-06T12:12:09;3.60;;;1.17;;
11616;SDS011;5864;52.998;9.068;2022-07-06T12:14:38;2.43;;;1.00;;
11616;SDS011;5864;52.998;9.068;2022-07-06T12:17:06;3.87;;;1.07;;
11616;SDS011;5864;52.998;9.068;2022-07-06T12:19:34;2.70;;;0.93;;
11616;SDS011;5864;52.998;9.068;2022-07-06T12:22:04;2.37;;;0.80;;
11616;SDS011;5864;52.998;9.068;2022-07-06T12:24:33;1.23;;;0.90;;
11616;SDS011;5864;52.998;9.068;2022-07-06T12:27:09;1.80;;;0.90;;
11616;SDS011;5864;52.998;9.068;2022-07-06T12:29:37;0.90;;;0.67;;
11616;SDS011;5864;52.998;9.068;2022-07-06T12:32:05;1.53;;;0.80;;
11616;SDS011;5864;52.998;9.068;2022-07-06T12:34:33;1.77;;;0.80;;
11616;SDS011;5864;52.998;9.068;2022-07-06T12:37:07;1.50;;;0.70;;
11616;SDS011;5864;52.998;9.068;2022-07-06T12:39:40;1.37;;;0.90;;
11616;SDS011;5864;52.998;9.068;2022-07-06T12:42:08;1.43;;;0.90;;
11616;SDS011;5864;52.998;9.068;2022-07-06T12:44:41;1.00;;;0.80;;
11616;SDS011;5864;52.998;9.068;2022-07-06T12:47:09;3.03;;;0.80;;
11616;SDS011;5864;52.998;9.068;2022-07-06T12:49:37;2.33;;;0.70;;
11616;SDS011;5864;52.998;9.068;2022-07-06T12:52:10;1.50;;;0.83;;
11616;SDS011;5864;52.998;9.068;2022-07-06T12:54:40;1.17;;;0.90;;
11616;SDS011;5864;52.998;9.068;2022-07-06T12:57:09;1.80;;;0.90;;
11616;SDS011;5864;52.998;9.068;2022-07-06T12:59:40;1.83;;;0.90;;
11616;SDS011;5864;52.998;9.068;2022-07-06T13:02:09;1.40;;;0.67;;
11616;SDS011;5864;52.998;9.068;2022-07-06T13:04:48;1.03;;;0.70;;
11616;SDS011;5864;52.998;9.068;2022-07-06T13:07:23;3.87;;;0.80;;
11616;SDS011;5864;52.998;9.068;2022-07-06T13:09:50;1.00;;;0.70;;
11616;SDS011;5864;52.998;9.068;2022-07-06T13:12:18;3.50;;;1.00;;
11616;SDS011;5864;52.998;9.068;2022-07-06T13:14:46;0.87;;;0.60;;
11616;SDS011;5864;52.998;9.068;2022-07-06T13:17:14;1.47;;;1.10;;
11616;SDS011;5864;52.998;9.068;2022-07-06T13:19:41;1.43;;;0.87;;
11616;SDS011;5864;52.998;9.068;2022-07-06T13:22:09;2.50;;;0.87;;
11616;SDS011;5864;52.998;9.068;2022-07-06T13:24:39;0.63;;;0.63;;
11616;SDS011;5864;52.998;9.068;2022-07-06T13:27:06;2.83;;;1.07;;
11616;SDS011;5864;52.998;9.068;2022-07-06T13:29:34;1.17;;;0.90;;
11616;SDS011;5864;52.998;9.068;2022-07-06T13:32:02;1.00;;;0.77;;
11616;SDS011;5864;52.998;9.068;2022-07-06T13:34:30;2.40;;;0.80;;
11616;SDS011;5864;52.998;9.068;2022-07-06T13:36:57;1.17;;;0.60;;
11616;SDS011;5864;52.998;9.068;2022-07-06T13:39:25;1.77;;;0.90;;
11616;SDS011;5864;52.998;9.068;2022-07-06T13:41:55;2.20;;;0.60;;
11616;SDS011;5864;52.998;9.068;2022-07-06T13:44:22;0.60;;;0.60;;
11616;SDS011;5864;52.998;9.068;2022-07-06T13:46:50;1.13;;;0.80;;
11616;SDS011;5864;52.998;9.068;2022-07-06T13:49:18;1.63;;;0.63;;
11616;SDS011;5864;52.998;9.068;2022-07-06T13:51:46;0.50;;;0.50;;
11616;SDS011;5864;52.998;9.068;2022-07-06T13:54:13;2.57;;;0.97;;
11616;SDS011;5864;52.998;9.068;2022-07-06T13:56:41;1.40;;;0.70;;
11616;SDS011;5864;52.998;9.068;2022-07-06T13:59:10;2.43;;;1.00;;
11616;SDS011;5864;52.998;9.068;2022-07-06T14:01:38;1.57;;;0.93;;
11616;SDS011;5864;52.998;9.068;2022-07-06T14:04:05;1.27;;;0.70;;
11616;SDS011;5864;52.998;9.068;2022-07-06T14:06:33;0.97;;;0.80;;
11616;SDS011;5864;52.998;9.068;2022-07-06T14:09:01;2.37;;;1.00;;
11616;SDS011;5864;52.998;9.068;2022-07-06T14:11:28;3.10;;;1.20;;
11616;SDS011;5864;52.998;9.068;2022-07-06T14:13:56;1.47;;;0.73;;
11616;SDS011;5864;52.998;9.068;2022-07-06T14:16:25;1.83;;;0.90;;
11616;SDS011;5864;52.998;9.068;2022-07-06T14:18:53;1.43;;;0.80;;
11616;SDS011;5864;52.998;9.068;2022-07-06T14:21:21;1.63;;;0.90;;
11616;SDS011;5864;52.998;9.068;2022-07-06T14:23:49;1.67;;;0.67;;
11616;SDS011;5864;52.998;9.068;2022-07-06T14:26:16;2.60;;;0.97;;
11616;SDS011;5864;52.998;9.068;2022-07-06T14:28:44;1.33;;;0.80;;
11616;SDS011;5864;52.998;9.068;2022-07-06T14:31:15;2.83;;;0.80;;
11616;SDS011;5864;52.998;9.068;2022-07-06T14:33:44;2.17;;;0.93;;
11616;SDS011;5864;52.998;9.068;2022-07-06T14:36:12;1.70;;;0.90;;
11616;SDS011;5864;52.998;9.068;2022-07-06T14:38:39;1.17;;;0.80;;
11616;SDS011;5864;52.998;9.068;2022-07-06T14:41:07;2.10;;;0.70;;
11616;SDS011;5864;52.998;9.068;2022-07-06T14:43:35;4.53;;;0.83;;
11616;SDS011;5864;52.998;9.068;2022-07-06T14:46:02;2.23;;;0.83;;
11616;SDS011;5864;52.998;9.068;2022-07-06T14:48:30;2.67;;;1.00;;
11616;SDS011;5864;52.998;9.068;2022-07-06T14:51:00;2.00;;;0.93;;
11616;SDS011;5864;52.998;9.068;2022-07-06T14:53:27;1.67;;;0.80;;
11616;SDS011;5864;52.998;9.068;2022-07-06T14:55:56;2.20;;;0.90;;
11616;SDS011;5864;52.998;9.068;2022-07-06T14:58:24;2.90;;;1.30;;
11616;SDS011;5864;52.998;9.068;2022-07-06T15:00:51;1.40;;;0.80;;
11616;SDS011;5864;52.998;9.068;2022-07-06T15:03:19;1.33;;;0.70;;
11616;SDS011;5864;52.998;9.068;2022-07-06T15:05:46;0.97;;;0.70;;
11616;SDS011;5864;52.998;9.068;2022-07-06T15:08:15;2.87;;;0.90;;
11616;SDS011;5864;52.998;9.068;2022-07-06T15:10:43;1.00;;;0.80;;
11616;SDS011;5864;52.998;9.068;2022-07-06T15:13:11;2.00;;;0.67;;